Time;durP1;ratioP1;P1;durP2;ratioP2;P2;SDS_P1;SDS_P2;PMS_P1;PMS_P2;Temp;Humidity;BMP_temperature;BMP_pressure;BME280_temperature;BME280_humidity;BME280_pressure;Samples;Min_cycle;Max_cycle;Signal;HPM_P1;HPM_P2
2021/04/22 00:00:49;;;;;;;23.13;7.00;;;2.50;99.90;;;;;;4153827;28;20087;-81
2021/04/22 00:02:50;;;;;;;24.70;8.55;;;2.50;99.90;;;;;;4148480;28;20412;-81
2021/04/22 00:04:51;;;;;;;20.85;7.75;;;2.50;99.90;;;;;;4146914;28;20061;-81
2021/04/22 00:06:53;;;;;;;25.52;6.55;;;2.50;99.90;;;;;;4146668;28;20038;-80
2021/04/22 00:08:55;;;;;;;34.60;7.47;;;2.50;99.90;;;;;;4146473;28;20493;-81
2021/04/22 00:10:56;;;;;;;28.35;6.88;;;2.50;99.90;;;;;;4148124;28;20121;-81
2021/04/22 00:12:57;;;;;;;34.20;6.70;;;2.40;99.90;;;;;;4134346;28;20409;-81
2021/04/22 00:14:58;;;;;;;26.25;7.63;;;2.40;99.90;;;;;;4124692;28;20027;-81
2021/04/22 00:16:59;;;;;;;29.58;7.60;;;2.20;99.90;;;;;;4127969;28;20046;-80
2021/04/22 00:19:00;;;;;;;28.45;6.53;;;2.20;99.90;;;;;;4137268;28;20034;-80
2021/04/22 00:21:01;;;;;;;27.35;9.88;;;2.20;99.90;;;;;;4146272;28;20097;-79
2021/04/22 00:23:14;;;;;;;27.15;7.35;;;2.20;99.90;;;;;;4139992;28;20026;-80
2021/04/22 00:25:15;;;;;;;26.13;7.40;;;2.20;99.90;;;;;;4127627;28;20041;-81
2021/04/22 00:27:15;;;;;;;28.20;7.82;;;2.20;99.90;;;;;;4145770;28;20033;-80
2021/04/22 00:29:16;;;;;;;28.90;7.82;;;2.20;99.90;;;;;;4128218;28;20038;-81
2021/04/22 00:31:17;;;;;;;30.88;8.38;;;2.20;99.90;;;;;;4145854;28;20030;-80
2021/04/22 00:33:21;;;;;;;28.40;8.40;;;2.10;99.90;;;;;;4162990;28;20056;-81
2021/04/22 00:35:22;;;;;;;30.30;7.60;;;2.00;99.90;;;;;;4146514;28;20136;-80
2021/04/22 00:37:23;;;;;;;23.65;8.75;;;1.90;99.90;;;;;;4130638;28;20096;-80
2021/04/22 00:39:24;;;;;;;19.80;7.55;;;1.80;99.90;;;;;;4145995;28;20030;-80
2021/04/22 00:41:25;;;;;;;24.70;7.93;;;1.70;99.90;;;;;;4124998;28;20027;-81
2021/04/22 00:43:26;;;;;;;20.80;7.43;;;1.60;99.90;;;;;;4158065;28;20139;-81
2021/04/22 00:45:27;;;;;;;27.85;7.53;;;1.50;99.90;;;;;;4141701;28;20034;-81
2021/04/22 00:47:28;;;;;;;28.65;7.93;;;1.50;99.90;;;;;;4164399;28;20511;-81
2021/04/22 00:49:29;;;;;;;23.60;8.93;;;1.40;99.90;;;;;;4162361;28;20036;-80
2021/04/22 00:51:30;;;;;;;25.95;8.00;;;1.40;99.90;;;;;;4163068;28;20045;-81
2021/04/22 00:53:31;;;;;;;25.50;7.28;;;1.30;99.90;;;;;;4162420;28;20037;-81
2021/04/22 00:55:34;;;;;;;26.65;8.07;;;1.20;99.90;;;;;;4162701;28;20072;-80
2021/04/22 00:57:35;;;;;;;26.15;9.00;;;1.20;99.90;;;;;;4140393;28;20049;-81
2021/04/22 00:59:36;;;;;;;22.52;7.43;;;1.10;99.90;;;;;;4162305;28;20038;-81
2021/04/22 01:01:37;;;;;;;20.73;7.05;;;1.10;99.90;;;;;;4144833;28;20201;-79
2021/04/22 01:03:37;;;;;;;26.95;7.63;;;1.20;99.90;;;;;;4162606;28;20037;-80
2021/04/22 01:05:52;;;;;;;25.98;8.10;;;1.20;99.90;;;;;;4162587;28;20504;-81
2021/04/22 01:07:53;;;;;;;20.52;7.63;;;1.20;99.90;;;;;;4146394;28;20042;-80
2021/04/22 01:09:56;;;;;;;24.60;7.95;;;1.30;99.90;;;;;;4162160;28;20052;-80
2021/04/22 01:11:58;;;;;;;30.70;8.10;;;1.40;99.90;;;;;;4161611;28;20564;-80
2021/04/22 01:13:59;;;;;;;45.88;11.95;;;1.60;99.90;;;;;;4161634;28;20684;-81
2021/04/22 01:16:00;;;;;;;23.95;8.05;;;1.50;99.90;;;;;;4145668;28;20077;-81
2021/04/22 01:18:04;;;;;;;20.85;8.07;;;1.40;99.90;;;;;;4161347;28;20037;-79
2021/04/22 01:20:19;;;;;;;22.25;7.50;;;1.40;99.90;;;;;;4129660;28;20113;-80
2021/04/22 01:22:19;;;;;;;34.65;8.00;;;1.30;99.90;;;;;;4145787;28;20440;-80
2021/04/22 01:24:21;;;;;;;28.80;8.80;;;1.20;99.90;;;;;;4160457;28;20037;-81
2021/04/22 01:26:25;;;;;;;27.67;8.75;;;1.10;99.90;;;;;;4145596;28;20042;-80
2021/04/22 01:28:27;;;;;;;29.48;8.65;;;1.10;99.90;;;;;;4162159;28;20048;-81
2021/04/22 01:30:35;;;;;;;29.02;8.30;;;1.00;99.90;;;;;;4162025;28;20083;-81
2021/04/22 01:32:37;;;;;;;29.65;8.15;;;1.00;99.90;;;;;;4145757;28;20108;-80
2021/04/22 01:34:37;;;;;;;27.52;8.73;;;0.90;99.90;;;;;;4162317;28;20448;-81
2021/04/22 01:36:42;;;;;;;21.65;9.13;;;0.90;99.90;;;;;;4145677;28;20037;-80
2021/04/22 01:38:43;;;;;;;15.93;7.38;;;0.90;99.90;;;;;;4161970;28;20028;-80
2021/04/22 01:40:44;;;;;;;21.33;8.15;;;0.90;99.90;;;;;;4156976;28;20034;-80
2021/04/22 01:42:45;;;;;;;25.50;6.85;;;0.90;99.90;;;;;;4159711;28;20033;-80
2021/04/22 01:44:46;;;;;;;31.30;8.88;;;0.90;99.90;;;;;;4155862;28;20172;-80
2021/04/22 01:46:47;;;;;;;30.73;9.88;;;0.80;99.90;;;;;;4145445;28;20117;-80
2021/04/22 01:48:48;;;;;;;25.88;8.20;;;0.90;99.90;;;;;;4145591;28;20076;-80
2021/04/22 01:50:50;;;;;;;34.83;9.75;;;1.00;99.90;;;;;;4157187;28;20519;-80
2021/04/22 01:52:52;;;;;;;33.72;8.63;;;1.00;99.90;;;;;;4161670;28;20025;-81
2021/04/22 01:54:52;;;;;;;32.10;8.20;;;1.10;99.90;;;;;;4161558;28;20031;-80
2021/04/22 01:56:53;;;;;;;28.23;9.13;;;1.10;99.90;;;;;;4163224;28;20500;-80
2021/04/22 01:58:54;;;;;;;23.33;9.20;;;1.10;99.90;;;;;;4145205;28;20417;-81
2021/04/22 02:00:58;;;;;;;21.48;8.60;;;1.10;99.90;;;;;;4156263;28;20069;-80
2021/04/22 02:02:59;;;;;;;21.30;7.63;;;1.10;99.90;;;;;;4161563;28;20035;-80
2021/04/22 02:04:59;;;;;;;16.55;8.23;;;1.00;99.90;;;;;;4161426;28;20056;-80
2021/04/22 02:07:02;;;;;;;32.92;10.38;;;1.00;99.90;;;;;;4146527;28;20044;-81
2021/04/22 02:09:03;;;;;;;39.43;9.30;;;1.00;99.90;;;;;;4136492;28;20509;-79
2021/04/22 02:11:05;;;;;;;27.38;8.50;;;1.00;99.90;;;;;;4171681;28;20040;-81
2021/04/22 02:13:10;;;;;;;35.05;9.60;;;1.00;99.90;;;;;;4142111;28;20022;-80
2021/04/22 02:15:18;;;;;;;26.83;7.35;;;1.00;99.90;;;;;;4135832;28;20515;-80
2021/04/22 02:17:19;;;;;;;24.85;8.45;;;0.90;99.90;;;;;;4145662;28;20069;-80
2021/04/22 02:19:19;;;;;;;26.90;8.32;;;0.90;99.90;;;;;;4144863;28;20026;-80
2021/04/22 02:21:20;;;;;;;24.02;8.23;;;0.90;99.90;;;;;;4161473;28;20052;-81
2021/04/22 02:23:24;;;;;;;22.85;8.48;;;0.80;99.90;;;;;;4161471;28;20037;-81
2021/04/22 02:25:28;;;;;;;32.85;9.30;;;0.80;99.90;;;;;;4161572;28;20112;-81
2021/04/22 02:27:30;;;;;;;28.58;9.52;;;0.80;99.90;;;;;;4161680;28;20099;-80
2021/04/22 02:29:30;;;;;;;24.10;9.00;;;0.70;99.90;;;;;;4161377;28;20466;-81
2021/04/22 02:31:31;;;;;;;18.75;7.72;;;0.70;99.90;;;;;;4160353;28;20109;-81
2021/04/22 02:33:32;;;;;;;25.83;9.15;;;0.70;99.90;;;;;;4143589;28;20037;-81
2021/04/22 02:35:36;;;;;;;31.38;7.00;;;0.70;99.90;;;;;;4159820;28;20065;-81
2021/04/22 02:37:38;;;;;;;27.77;8.73;;;0.60;99.90;;;;;;4143384;28;20084;-81
2021/04/22 02:39:38;;;;;;;22.08;8.15;;;0.60;99.90;;;;;;4150631;28;20033;-80
2021/04/22 02:41:39;;;;;;;27.63;8.85;;;0.60;99.90;;;;;;4161216;28;20034;-81
2021/04/22 02:43:40;;;;;;;31.23;9.02;;;0.60;99.90;;;;;;4143634;28;20042;-81
2021/04/22 02:45:45;;;;;;;27.02;9.32;;;0.50;99.90;;;;;;4143009;28;20085;-81
2021/04/22 02:47:46;;;;;;;33.05;9.18;;;0.60;99.90;;;;;;4147546;28;20029;-80
2021/04/22 02:49:47;;;;;;;37.08;8.10;;;0.60;99.90;;;;;;4143327;28;20571;-81
2021/04/22 02:51:48;;;;;;;28.75;8.20;;;0.60;99.90;;;;;;4159496;28;20509;-81
2021/04/22 02:53:49;;;;;;;24.67;8.25;;;0.60;99.90;;;;;;4143553;28;20082;-81
2021/04/22 02:55:50;;;;;;;36.88;9.85;;;0.60;99.90;;;;;;4143552;28;20045;-81
2021/04/22 02:57:51;;;;;;;29.52;9.27;;;0.60;99.90;;;;;;4155474;28;20033;-81
2021/04/22 02:59:52;;;;;;;17.38;8.52;;;0.60;99.90;;;;;;4143271;28;20068;-81
2021/04/22 03:01:53;;;;;;;25.88;10.10;;;0.60;99.90;;;;;;4147936;28;20363;-81
2021/04/22 03:03:53;;;;;;;27.85;9.10;;;0.60;99.90;;;;;;4138643;28;20036;-81
2021/04/22 03:05:56;;;;;;;30.73;9.18;;;0.60;99.90;;;;;;4151945;28;20037;-81
2021/04/22 03:07:57;;;;;;;20.77;7.90;;;0.70;99.90;;;;;;4166361;28;20480;-81
2021/04/22 03:09:58;;;;;;;28.17;8.68;;;0.60;99.90;;;;;;4136331;28;20133;-81
2021/04/22 03:11:59;;;;;;;34.22;10.23;;;0.60;99.90;;;;;;4147475;28;20041;-80
2021/04/22 03:13:59;;;;;;;31.70;12.02;;;0.60;99.90;;;;;;4137813;28;20412;-80
2021/04/22 03:16:00;;;;;;;30.23;9.80;;;0.50;99.90;;;;;;4136051;28;20166;-79
2021/04/22 03:18:03;;;;;;;22.08;8.20;;;0.60;99.90;;;;;;4162869;28;20735;-78
2021/04/22 03:20:06;;;;;;;25.27;9.02;;;0.60;99.90;;;;;;4131233;28;20030;-79
2021/04/22 03:22:07;;;;;;;36.28;9.02;;;0.80;99.90;;;;;;4134152;28;20085;-79
2021/04/22 03:24:09;;;;;;;30.88;8.65;;;0.90;99.90;;;;;;4147832;28;20030;-79
2021/04/22 03:26:10;;;;;;;28.83;8.95;;;0.90;99.90;;;;;;4147751;28;20033;-80
2021/04/22 03:28:10;;;;;;;26.52;9.18;;;1.00;99.90;;;;;;4144391;28;20034;-80
2021/04/22 03:30:14;;;;;;;24.27;8.98;;;0.90;99.90;;;;;;4160586;28;20038;-80
2021/04/22 03:32:16;;;;;;;19.20;8.88;;;0.90;99.90;;;;;;4150171;28;20113;-80
2021/04/22 03:34:16;;;;;;;25.40;8.73;;;0.90;99.90;;;;;;4152973;28;20060;-80
2021/04/22 03:36:17;;;;;;;29.73;9.40;;;1.00;99.90;;;;;;4150307;28;20041;-80
2021/04/22 03:38:18;;;;;;;20.23;8.38;;;1.00;99.90;;;;;;4148722;28;20084;-80
2021/04/22 03:40:22;;;;;;;22.10;7.97;;;1.00;99.90;;;;;;4145125;28;20030;-80
2021/04/22 03:42:23;;;;;;;27.48;8.95;;;1.00;99.90;;;;;;4146278;28;20548;-80
2021/04/22 03:44:25;;;;;;;26.13;10.20;;;1.10;99.90;;;;;;4159462;28;20029;-80
2021/04/22 03:46:26;;;;;;;32.47;7.63;;;1.20;99.90;;;;;;4139707;28;20183;-80
2021/04/22 03:48:26;;;;;;;26.08;8.48;;;1.30;99.90;;;;;;4152773;28;20393;-80
2021/04/22 03:50:27;;;;;;;22.42;9.45;;;1.40;99.90;;;;;;4159925;28;20038;-80
2021/04/22 03:52:28;;;;;;;24.85;8.82;;;1.40;99.90;;;;;;4162938;28;20059;-80
2021/04/22 03:54:29;;;;;;;20.27;6.88;;;1.50;99.90;;;;;;4163087;28;20113;-80
2021/04/22 03:56:29;;;;;;;21.77;8.35;;;1.50;99.90;;;;;;4162033;28;20091;-80
2021/04/22 03:58:31;;;;;;;21.40;8.77;;;1.50;99.90;;;;;;4145829;28;20033;-80
2021/04/22 04:00:31;;;;;;;23.85;8.32;;;1.60;99.90;;;;;;4161927;28;20029;-80
2021/04/22 04:02:32;;;;;;;20.75;7.47;;;1.60;99.90;;;;;;4145717;28;20600;-80
2021/04/22 04:04:33;;;;;;;29.98;8.57;;;1.70;99.90;;;;;;4143358;28;20036;-81
2021/04/22 04:06:34;;;;;;;21.30;8.68;;;1.70;99.90;;;;;;4161699;28;20021;-81
2021/04/22 04:08:35;;;;;;;23.30;9.55;;;1.70;99.90;;;;;;4145623;28;20030;-81
2021/04/22 04:10:36;;;;;;;26.30;9.25;;;1.80;99.90;;;;;;4162275;28;20480;-81
2021/04/22 04:12:38;;;;;;;30.30;8.52;;;1.90;99.90;;;;;;4156410;28;20037;-81
2021/04/22 04:14:38;;;;;;;20.55;8.75;;;2.00;99.90;;;;;;4134437;28;20040;-80
2021/04/22 04:16:39;;;;;;;26.20;8.52;;;2.10;99.90;;;;;;4159833;28;20052;-81
2021/04/22 04:18:40;;;;;;;26.98;8.13;;;2.10;99.90;;;;;;4146719;28;20025;-81
2021/04/22 04:20:41;;;;;;;19.55;8.63;;;2.20;99.90;;;;;;4146600;28;20052;-81
2021/04/22 04:22:42;;;;;;;22.30;8.80;;;2.40;99.90;;;;;;4146647;28;20029;-81
2021/04/22 04:24:43;;;;;;;18.20;7.97;;;2.50;99.90;;;;;;4146074;28;20033;-80
2021/04/22 04:26:44;;;;;;;22.92;8.30;;;2.60;99.90;;;;;;4144228;28;20025;-80
2021/04/22 04:28:45;;;;;;;19.52;7.15;;;2.70;99.90;;;;;;4158700;28;20053;-80
2021/04/22 04:30:46;;;;;;;31.70;7.47;;;2.80;99.90;;;;;;4145451;28;20045;-80
2021/04/22 04:32:48;;;;;;;19.35;7.47;;;2.80;99.90;;;;;;4161750;28;20049;-80
2021/04/22 04:34:49;;;;;;;19.98;6.60;;;2.80;99.90;;;;;;4146148;28;20026;-81
2021/04/22 04:36:50;;;;;;;21.48;7.80;;;2.90;99.90;;;;;;4161170;28;20030;-80
2021/04/22 04:38:51;;;;;;;23.15;7.38;;;2.90;99.90;;;;;;4160934;28;20026;-81
2021/04/22 04:40:51;;;;;;;24.70;7.72;;;2.90;99.90;;;;;;4148262;28;20563;-81
2021/04/22 04:42:52;;;;;;;20.35;7.95;;;3.00;99.90;;;;;;4161435;28;20109;-81
2021/04/22 04:44:53;;;;;;;33.40;8.45;;;3.00;99.90;;;;;;4147764;28;20061;-81
2021/04/22 04:46:54;;;;;;;24.40;9.25;;;3.10;99.90;;;;;;4131845;28;20155;-81
2021/04/22 04:48:55;;;;;;;19.85;7.63;;;3.20;99.90;;;;;;4165578;28;20033;-81
2021/04/22 04:50:55;;;;;;;27.30;8.05;;;3.30;99.90;;;;;;4174838;28;20036;-81
2021/04/22 04:52:56;;;;;;;16.40;7.07;;;3.40;99.90;;;;;;4159252;28;20088;-80
2021/04/22 04:54:57;;;;;;;25.52;7.78;;;3.60;99.90;;;;;;4142685;28;20042;-81
2021/04/22 04:56:58;;;;;;;16.83;7.65;;;3.70;99.90;;;;;;4156640;28;20163;-81
2021/04/22 04:58:59;;;;;;;25.52;8.73;;;3.80;99.90;;;;;;4151403;28;20383;-81
2021/04/22 05:01:00;;;;;;;17.52;7.57;;;4.00;99.90;;;;;;4145116;28;20053;-81
2021/04/22 05:03:00;;;;;;;22.08;8.80;;;4.10;99.90;;;;;;4159260;28;20371;-81
2021/04/22 05:05:03;;;;;;;25.42;8.52;;;4.20;99.90;;;;;;4145304;28;20121;-80
2021/04/22 05:07:04;;;;;;;22.50;8.30;;;4.20;99.90;;;;;;4153801;28;20038;-81
2021/04/22 05:09:06;;;;;;;27.15;9.88;;;4.30;99.90;;;;;;4152311;28;20033;-81
2021/04/22 05:11:06;;;;;;;31.08;8.68;;;4.40;99.90;;;;;;4158869;28;20047;-80
2021/04/22 05:13:07;;;;;;;19.67;7.43;;;4.50;99.90;;;;;;4149906;28;20046;-80
2021/04/22 05:15:09;;;;;;;18.33;7.53;;;4.50;99.90;;;;;;4165932;28;20033;-80
2021/04/22 05:17:10;;;;;;;17.10;6.72;;;4.60;99.90;;;;;;4161101;28;20401;-80
2021/04/22 05:19:11;;;;;;;19.05;8.27;;;4.60;99.90;;;;;;4157476;28;20161;-80
2021/04/22 05:21:12;;;;;;;22.00;8.68;;;4.50;99.90;;;;;;4154577;28;20522;-80
2021/04/22 05:23:12;;;;;;;20.50;8.20;;;4.60;99.90;;;;;;4153077;28;20026;-80
2021/04/22 05:25:13;;;;;;;27.27;8.00;;;4.70;99.90;;;;;;4149415;28;20100;-80
2021/04/22 05:27:14;;;;;;;27.48;8.00;;;4.70;99.90;;;;;;4154479;28;20117;-79
2021/04/22 05:29:15;;;;;;;32.72;8.40;;;4.80;99.90;;;;;;4154942;28;20033;-80
2021/04/22 05:31:15;;;;;;;16.77;7.13;;;4.80;99.90;;;;;;4161430;28;20496;-79
2021/04/22 05:33:17;;;;;;;20.50;8.25;;;4.90;99.90;;;;;;4158587;28;20026;-80
2021/04/22 05:35:18;;;;;;;19.10;8.23;;;5.00;99.90;;;;;;4161312;28;20021;-79
2021/04/22 05:37:19;;;;;;;18.23;7.85;;;5.00;99.90;;;;;;4144479;28;20068;-82
2021/04/22 05:39:22;;;;;;;18.30;7.50;;;5.10;99.90;;;;;;4136784;28;20041;-80
2021/04/22 05:41:23;;;;;;;14.32;7.93;;;5.20;99.90;;;;;;4139474;28;20099;-80
2021/04/22 05:43:23;;;;;;;15.13;6.53;;;5.40;99.90;;;;;;4142217;28;20065;-80
2021/04/22 05:45:24;;;;;;;27.75;7.10;;;5.50;99.90;;;;;;4161439;28;20044;-81
2021/04/22 05:47:25;;;;;;;22.48;6.35;;;5.80;99.90;;;;;;4149737;28;20037;-80
2021/04/22 05:49:27;;;;;;;19.65;7.13;;;5.80;99.90;;;;;;4145288;28;20066;-83
2021/04/22 05:51:28;;;;;;;16.23;7.72;;;6.00;99.90;;;;;;4163494;28;20124;-84
2021/04/22 05:53:30;;;;;;;23.50;7.70;;;6.10;99.90;;;;;;4145706;28;20516;-82
2021/04/22 05:55:32;;;;;;;18.90;6.47;;;6.10;99.90;;;;;;4144544;28;20567;-83
2021/04/22 05:57:33;;;;;;;27.80;6.85;;;6.20;99.90;;;;;;4156285;28;20048;-83
2021/04/22 05:59:33;;;;;;;20.85;6.68;;;6.20;99.90;;;;;;4145362;28;20038;-82
2021/04/22 06:01:34;;;;;;;15.70;6.85;;;6.30;99.90;;;;;;4138996;28;20034;-82
2021/04/22 06:03:35;;;;;;;21.45;7.15;;;6.30;99.90;;;;;;4144246;28;20044;-81
2021/04/22 06:05:36;;;;;;;23.67;7.30;;;6.40;99.90;;;;;;4125625;28;20038;-81
2021/04/22 06:07:37;;;;;;;26.33;7.57;;;6.50;99.90;;;;;;4129255;28;20030;-84
2021/04/22 06:09:38;;;;;;;24.20;7.90;;;6.60;99.90;;;;;;4143864;28;20033;-83
2021/04/22 06:11:39;;;;;;;16.33;6.40;;;6.70;99.90;;;;;;4128306;28;20046;-83
2021/04/22 06:13:41;;;;;;;27.73;9.70;;;6.70;99.90;;;;;;4145441;28;20057;-83
2021/04/22 06:15:41;;;;;;;26.85;7.93;;;6.70;99.90;;;;;;4146101;28;20045;-82
2021/04/22 06:17:43;;;;;;;20.33;7.03;;;6.70;99.90;;;;;;4140739;28;20037;-84
2021/04/22 06:19:43;;;;;;;17.35;6.97;;;6.80;99.90;;;;;;4149451;28;20054;-83
2021/04/22 06:21:44;;;;;;;13.63;5.93;;;6.90;99.90;;;;;;4142593;28;20456;-83
2021/04/22 06:23:46;;;;;;;24.00;8.40;;;7.00;99.90;;;;;;4166880;28;20510;-83
2021/04/22 06:25:46;;;;;;;19.38;6.78;;;7.10;99.90;;;;;;4155947;28;20041;-83
2021/04/22 06:27:49;;;;;;;14.43;6.43;;;7.20;99.90;;;;;;4156135;28;20496;-83
2021/04/22 06:29:50;;;;;;;17.40;6.70;;;7.40;99.90;;;;;;4147806;28;20128;-83
2021/04/22 06:31:51;;;;;;;18.30;6.85;;;7.40;99.90;;;;;;4137380;28;20038;-83
2021/04/22 06:33:52;;;;;;;21.02;6.70;;;7.50;99.90;;;;;;4131653;28;20034;-82
2021/04/22 06:35:52;;;;;;;21.88;6.45;;;7.60;99.90;;;;;;4125155;28;20038;-83
2021/04/22 06:37:53;;;;;;;22.05;7.03;;;7.70;99.90;;;;;;4122858;28;20189;-82
2021/04/22 06:39:54;;;;;;;18.80;6.97;;;7.90;99.90;;;;;;4140810;28;20038;-84
2021/04/22 06:41:55;;;;;;;16.92;6.20;;;8.00;99.90;;;;;;4152266;28;20041;-83
2021/04/22 06:43:56;;;;;;;16.95;6.25;;;8.00;99.90;;;;;;4132924;28;20111;-82
2021/04/22 06:45:57;;;;;;;15.93;6.10;;;8.00;99.90;;;;;;4140884;28;20536;-83
2021/04/22 06:47:57;;;;;;;15.32;6.32;;;8.10;99.90;;;;;;4139410;28;20101;-82
2021/04/22 06:49:58;;;;;;;19.77;6.20;;;8.10;99.90;;;;;;4146582;28;20038;-81
2021/04/22 06:51:59;;;;;;;23.02;7.65;;;8.00;99.90;;;;;;4158769;28;20037;-82
2021/04/22 06:54:00;;;;;;;17.35;6.10;;;7.90;99.90;;;;;;4142216;28;20037;-81
2021/04/22 06:56:01;;;;;;;14.88;6.28;;;7.90;99.90;;;;;;4142290;28;20077;-80
2021/04/22 06:58:05;;;;;;;20.33;6.25;;;8.00;99.90;;;;;;4142573;28;20172;-82
2021/04/22 07:00:13;;;;;;;17.10;6.78;;;8.10;99.90;;;;;;4141803;28;20124;-83
2021/04/22 07:02:14;;;;;;;20.83;6.72;;;8.30;99.90;;;;;;4134834;28;20409;-84
2021/04/22 07:04:15;;;;;;;18.80;6.53;;;8.40;99.90;;;;;;4134714;28;20061;-83
2021/04/22 07:06:15;;;;;;;24.17;7.03;;;8.50;99.90;;;;;;4144051;28;20038;-83
2021/04/22 07:08:16;;;;;;;23.42;6.38;;;8.60;99.90;;;;;;4157101;28;20037;-82
2021/04/22 07:10:18;;;;;;;29.20;5.97;;;8.70;99.90;;;;;;4151776;28;20053;-83
2021/04/22 07:12:18;;;;;;;18.08;6.88;;;8.90;99.90;;;;;;4137171;28;20544;-83
2021/04/22 07:14:19;;;;;;;20.95;5.68;;;9.00;99.90;;;;;;4151100;28;20034;-83
2021/04/22 07:16:20;;;;;;;21.38;6.15;;;9.10;99.90;;;;;;4140379;28;20045;-82
2021/04/22 07:18:21;;;;;;;24.42;6.95;;;9.20;99.90;;;;;;4135434;28;20111;-83
2021/04/22 07:20:23;;;;;;;18.88;6.55;;;9.30;99.90;;;;;;4138820;28;20030;-82
2021/04/22 07:22:25;;;;;;;25.08;6.03;;;9.40;99.90;;;;;;4158800;28;20037;-83
2021/04/22 07:24:26;;;;;;;17.88;5.10;;;9.40;99.90;;;;;;4157458;28;20472;-83
2021/04/22 07:26:26;;;;;;;17.75;5.82;;;9.30;99.90;;;;;;4144407;28;20037;-83
2021/04/22 07:28:27;;;;;;;17.50;6.00;;;9.40;99.90;;;;;;4142287;28;20030;-83
2021/04/22 07:30:28;;;;;;;13.13;5.07;;;9.40;99.90;;;;;;4153737;28;20064;-83
2021/04/22 07:32:29;;;;;;;14.98;4.78;;;9.50;99.90;;;;;;4161292;28;20037;-83
2021/04/22 07:34:29;;;;;;;14.00;5.07;;;9.50;99.90;;;;;;4164093;28;20089;-83
2021/04/22 07:36:30;;;;;;;12.30;5.70;;;9.60;99.90;;;;;;4147873;28;20026;-83
2021/04/22 07:38:31;;;;;;;16.25;5.50;;;9.70;99.90;;;;;;4159128;28;20025;-84
2021/04/22 07:40:32;;;;;;;24.35;7.25;;;9.90;99.90;;;;;;4147928;28;20030;-83
2021/04/22 07:42:33;;;;;;;22.73;5.90;;;9.90;99.90;;;;;;4151270;28;20038;-83
2021/04/22 07:44:34;;;;;;;20.10;6.22;;;9.90;99.90;;;;;;4156598;28;20026;-84
2021/04/22 07:46:35;;;;;;;15.82;5.57;;;10.00;99.90;;;;;;4154620;28;20041;-83
2021/04/22 07:48:36;;;;;;;17.35;5.53;;;10.00;99.90;;;;;;4151189;28;20026;-83
2021/04/22 07:50:39;;;;;;;20.70;6.50;;;10.00;99.90;;;;;;4147335;28;20066;-84
2021/04/22 07:52:43;;;;;;;15.07;5.05;;;10.10;99.90;;;;;;4163080;28;20033;-84
2021/04/22 07:54:43;;;;;;;16.63;5.63;;;10.30;99.90;;;;;;4163824;28;20030;-83
2021/04/22 07:56:44;;;;;;;21.00;6.55;;;10.50;99.90;;;;;;4155078;28;20030;-81
2021/04/22 07:58:45;;;;;;;12.48;5.65;;;10.50;99.90;;;;;;4143668;28;20034;-82
2021/04/22 08:00:48;;;;;;;12.35;5.15;;;10.40;99.90;;;;;;4156169;28;20117;-83
2021/04/22 08:02:50;;;;;;;12.15;5.22;;;10.40;99.90;;;;;;4143894;28;20133;-83
2021/04/22 08:04:51;;;;;;;14.55;5.00;;;10.70;99.90;;;;;;4150588;28;20488;-83
2021/04/22 08:06:52;;;;;;;18.42;5.45;;;10.90;99.90;;;;;;4145823;28;20042;-83
2021/04/22 08:08:52;;;;;;;13.15;4.10;;;11.00;99.90;;;;;;4155505;28;20030;-83
2021/04/22 08:10:55;;;;;;;7.97;4.20;;;11.20;99.90;;;;;;4156150;28;20060;-83
2021/04/22 08:12:56;;;;;;;17.73;5.63;;;11.20;99.90;;;;;;4163094;28;20038;-83
2021/04/22 08:14:59;;;;;;;11.20;3.95;;;11.00;99.90;;;;;;4156606;28;20423;-83
2021/04/22 08:17:01;;;;;;;13.23;4.55;;;10.90;99.90;;;;;;4168014;28;20037;-83
2021/04/22 08:19:04;;;;;;;10.13;4.43;;;10.90;99.90;;;;;;4154196;28;20038;-82
2021/04/22 08:21:05;;;;;;;12.32;4.88;;;10.90;99.90;;;;;;4134776;28;20565;-83
2021/04/22 08:23:07;;;;;;;30.17;7.57;;;10.70;99.90;;;;;;4148756;28;20038;-82
2021/04/22 08:25:18;;;;;;;11.80;4.47;;;10.70;99.90;;;;;;4155088;28;20041;-81
2021/04/22 08:27:19;;;;;;;15.65;4.60;;;10.70;99.90;;;;;;4160809;28;20140;-80
2021/04/22 08:29:21;;;;;;;9.75;5.55;;;10.50;99.90;;;;;;4157412;28;20087;-82
2021/04/22 08:31:24;;;;;;;13.05;4.38;;;10.20;99.90;;;;;;4149464;28;20072;-82
2021/04/22 08:33:30;;;;;;;13.65;4.30;;;10.20;99.90;;;;;;4159265;28;20033;-82
2021/04/22 08:35:31;;;;;;;12.32;4.55;;;10.30;99.90;;;;;;4145419;28;20042;-82
2021/04/22 08:37:36;;;;;;;14.50;4.60;;;10.40;99.90;;;;;;4150634;28;20029;-83
2021/04/22 08:39:36;;;;;;;12.77;4.97;;;10.60;99.90;;;;;;4150715;28;20045;-83
2021/04/22 08:41:39;;;;;;;12.27;5.18;;;10.70;99.90;;;;;;4158295;28;20033;-82
2021/04/22 08:43:40;;;;;;;10.82;5.15;;;10.60;99.90;;;;;;4154376;28;20033;-83
2021/04/22 08:45:41;;;;;;;13.48;4.50;;;10.80;99.90;;;;;;4166350;28;20056;-83
2021/04/22 08:47:43;;;;;;;12.20;4.72;;;10.90;99.90;;;;;;4134555;28;20037;-84
2021/04/22 08:49:44;;;;;;;16.48;5.40;;;10.80;99.90;;;;;;4155341;28;20038;-83
2021/04/22 08:51:47;;;;;;;12.55;5.18;;;10.70;99.90;;;;;;4154058;28;20038;-82
2021/04/22 08:53:48;;;;;;;17.23;4.90;;;10.50;99.90;;;;;;4162437;28;20102;-83
2021/04/22 08:55:50;;;;;;;9.30;4.03;;;10.50;99.90;;;;;;4145386;28;20066;-83
2021/04/22 08:57:52;;;;;;;10.60;4.55;;;10.50;99.90;;;;;;4145553;28;20037;-83
2021/04/22 08:59:54;;;;;;;11.40;4.75;;;10.60;99.90;;;;;;4162765;28;20033;-83
2021/04/22 09:01:55;;;;;;;15.00;5.22;;;10.80;99.90;;;;;;4145809;28;20161;-82
2021/04/22 09:03:56;;;;;;;10.30;4.68;;;10.80;99.90;;;;;;4162670;28;20061;-83
2021/04/22 09:05:57;;;;;;;14.18;4.57;;;10.70;99.90;;;;;;4161684;28;20029;-83
2021/04/22 09:07:58;;;;;;;12.15;5.03;;;10.60;99.90;;;;;;4160458;28;20038;-83
2021/04/22 09:10:00;;;;;;;10.27;4.43;;;10.50;99.90;;;;;;4161923;28;20103;-82
2021/04/22 09:12:01;;;;;;;15.65;4.28;;;10.40;99.90;;;;;;4137533;28;20045;-81
2021/04/22 09:14:18;;;;;;;17.58;4.03;;;10.60;99.90;;;;;;4154361;28;20157;-81
2021/04/22 09:16:30;;;;;;;8.80;3.90;;;10.80;99.90;;;;;;4159261;28;20539;-83
2021/04/22 09:18:42;;;;;;;10.38;4.40;;;11.10;99.90;;;;;;4145335;28;20030;-82
2021/04/22 09:20:50;;;;;;;8.07;4.22;;;11.30;99.90;;;;;;4145651;28;20045;-82
2021/04/22 09:22:51;;;;;;;13.88;6.10;;;11.30;99.90;;;;;;4145778;28;20026;-83
2021/04/22 09:24:52;;;;;;;8.45;3.72;;;11.30;99.90;;;;;;4162754;28;20551;-83
2021/04/22 09:26:57;;;;;;;13.40;5.13;;;11.30;99.90;;;;;;4162030;28;20049;-82
2021/04/22 09:28:57;;;;;;;10.75;4.15;;;11.30;99.90;;;;;;4145451;28;20053;-82
2021/04/22 09:30:58;;;;;;;17.85;5.38;;;11.50;99.90;;;;;;4162724;28;20034;-83
2021/04/22 09:32:59;;;;;;;14.70;4.18;;;11.70;99.90;;;;;;4160724;28;20115;-82
2021/04/22 09:35:07;;;;;;;12.88;4.53;;;12.00;99.90;;;;;;4145268;28;20026;-82
2021/04/22 09:37:07;;;;;;;17.77;4.68;;;12.00;99.90;;;;;;4161393;28;20026;-82
2021/04/22 09:39:09;;;;;;;11.52;4.63;;;12.10;99.90;;;;;;4136301;28;20070;-83
2021/04/22 09:41:16;;;;;;;14.85;4.18;;;12.30;99.90;;;;;;4144913;28;20417;-83
2021/04/22 09:43:18;;;;;;;11.45;4.28;;;12.20;99.90;;;;;;4126747;28;20073;-83
2021/04/22 09:45:25;;;;;;;10.15;4.05;;;12.40;99.90;;;;;;4128385;28;20044;-83
2021/04/22 09:47:26;;;;;;;7.05;4.30;;;12.90;99.90;;;;;;4148268;28;20489;-82
2021/04/22 09:49:27;;;;;;;9.70;4.43;;;13.30;99.90;;;;;;4129945;28;20088;-83
2021/04/22 09:51:32;;;;;;;11.23;4.38;;;12.90;99.90;;;;;;4122023;28;20077;-82
2021/04/22 09:53:33;;;;;;;14.68;4.93;;;12.70;99.90;;;;;;4154279;28;20094;-82
2021/04/22 09:55:37;;;;;;;13.27;5.05;;;12.60;99.90;;;;;;4157450;28;20248;-81
2021/04/22 09:57:37;;;;;;;;;;;12.60;99.90;;;;;;4161340;28;20040;-83
2021/04/22 09:59:43;;;;;;;8.98;4.35;;;12.30;99.90;;;;;;4140433;28;19925;-83
2021/04/22 10:02:00;;;;;;;9.63;3.88;;;12.20;99.90;;;;;;4138272;28;20052;-82
2021/04/22 10:04:01;;;;;;;11.02;4.30;;;12.60;99.90;;;;;;4144682;28;20516;-84
2021/04/22 10:06:04;;;;;;;14.07;4.40;;;12.70;99.90;;;;;;4141502;28;20116;-82
2021/04/22 10:08:14;;;;;;;15.77;4.93;;;13.10;99.90;;;;;;4151307;28;20089;-81
2021/04/22 10:10:18;;;;;;;9.88;4.35;;;13.30;99.90;;;;;;4144566;28;20536;-82
2021/04/22 10:12:31;;;;;;;11.95;4.85;;;13.30;99.90;;;;;;4159583;28;20460;-82
2021/04/22 10:14:36;;;;;;;8.90;3.90;;;14.20;99.90;;;;;;4149083;28;20061;-83
2021/04/22 10:16:37;;;;;;;7.10;3.78;;;14.60;99.90;;;;;;4142246;28;20061;-83
2021/04/22 10:18:45;;;;;;;10.88;4.13;;;15.00;92.00;;;;;;4144642;28;20042;-83
2021/04/22 10:20:48;;;;;;;7.25;3.92;;;14.70;91.60;;;;;;4144822;28;20049;-82
2021/04/22 10:22:53;;;;;;;11.00;4.40;;;14.60;95.70;;;;;;4150704;28;20033;-82
2021/04/22 10:24:58;;;;;;;10.38;4.25;;;14.50;99.90;;;;;;4160757;28;20068;-84
2021/04/22 10:27:02;;;;;;;15.75;4.75;;;14.60;93.80;;;;;;4151685;28;20569;-82
2021/04/22 10:29:03;;;;;;;9.75;4.85;;;14.60;91.80;;;;;;4149313;28;20034;-81
2021/04/22 10:31:04;;;;;;;9.23;4.32;;;14.20;94.30;;;;;;4156078;28;20088;-81
2021/04/22 10:33:06;;;;;;;8.55;4.03;;;13.90;93.50;;;;;;4157994;28;20029;-79